Time;durP1;ratioP1;P1;durP2;ratioP2;P2;SDS_P1;SDS_P2;PMS_P1;PMS_P2;Temp;Humidity;BMP_temperature;BMP_pressure;BME280_temperature;BME280_humidity;BME280_pressure;Samples;Min_cycle;Max_cycle;Signal;HPM_P1;HPM_P2
2021/07/08 00:01:22;;;;;;;17.45;9.05;;;;;;;25.85;64.65;100029.34;5057197;28;20021;-68
2021/07/08 00:03:47;;;;;;;10.27;8.75;;;;;;;25.89;64.41;100033.19;5056220;28;20040;-68
2021/07/08 00:06:13;;;;;;;15.27;9.65;;;;;;;25.98;64.20;100029.78;5057152;28;20025;-65
2021/07/08 00:08:39;;;;;;;11.73;8.20;;;;;;;26.02;63.97;100036.34;5056138;28;20218;-68
2021/07/08 00:11:04;;;;;;;10.38;8.60;;;;;;;25.99;64.29;100025.97;5056077;28;20108;-65
2021/07/08 00:13:30;;;;;;;13.60;8.95;;;;;;;26.17;64.06;100045.72;5056579;28;20067;-68
2021/07/08 00:15:57;;;;;;;12.50;8.95;;;;;;;25.99;64.27;100042.25;5056100;28;20025;-65
2021/07/08 00:18:25;;;;;;;15.50;8.57;;;;;;;25.89;64.35;100044.88;5056199;28;20187;-65
2021/07/08 00:20:52;;;;;;;12.00;9.23;;;;;;;25.86;64.83;100039.97;5056553;28;20322;-67
2021/07/08 00:23:20;;;;;;;15.35;9.65;;;;;;;25.90;64.85;100041.09;5056493;28;20051;-68
2021/07/08 00:25:48;;;;;;;16.52;9.35;;;;;;;25.86;64.87;100044.56;5057175;28;20036;-68
2021/07/08 00:28:15;;;;;;;19.30;10.20;;;;;;;25.65;65.45;100044.34;5060905;28;20052;-68
2021/07/08 00:30:43;;;;;;;12.93;9.90;;;;;;;25.48;65.42;100012.91;5059575;28;20033;-64
2021/07/08 00:33:09;;;;;;;14.60;9.73;;;;;;;25.62;65.75;100047.53;5056073;28;20048;-64
2021/07/08 00:35:36;;;;;;;15.27;9.68;;;;;;;25.72;65.10;100055.00;5060707;28;20059;-64
2021/07/08 00:38:03;;;;;;;13.02;8.90;;;;;;;25.76;65.20;100050.69;5059481;28;20092;-67
2021/07/08 00:40:28;;;;;;;14.77;9.73;;;;;;;25.66;65.29;100054.09;5060867;28;20028;-65
2021/07/08 00:42:54;;;;;;;18.27;9.48;;;;;;;25.47;66.59;100063.59;5058820;28;20094;-68
2021/07/08 00:45:21;;;;;;;13.85;9.65;;;;;;;25.25;66.84;100055.47;5059555;28;20025;-68
2021/07/08 00:47:47;;;;;;;13.40;9.50;;;;;;;25.38;66.92;100068.66;5060562;28;20067;-66
2021/07/08 00:50:15;;;;;;;11.55;9.13;;;;;;;25.43;66.30;100067.88;5058981;28;20512;-67
2021/07/08 00:52:40;;;;;;;11.20;8.45;;;;;;;25.43;66.17;100065.19;5059358;28;20035;-65
2021/07/08 00:55:08;;;;;;;12.85;8.73;;;;;;;25.43;66.64;100074.13;5060716;28;20037;-68
2021/07/08 00:57:34;;;;;;;16.02;8.73;;;;;;;25.46;66.28;100075.53;5059320;28;20436;-67
2021/07/08 00:59:59;;;;;;;12.38;8.60;;;;;;;25.29;66.33;100058.50;5059371;28;20040;-65
2021/07/08 01:02:26;;;;;;;16.45;9.25;;;;;;;25.31;66.16;100065.31;5059747;28;20233;-65
2021/07/08 01:04:52;;;;;;;12.18;9.18;;;;;;;25.47;65.55;100066.31;5058793;28;20021;-68
2021/07/08 01:07:23;;;;;;;15.00;8.90;;;;;;;25.35;66.17;100068.34;5060425;28;20036;-66
2021/07/08 01:09:50;;;;;;;13.07;8.30;;;;;;;25.50;65.62;100060.38;5059655;28;20275;-68
2021/07/08 01:12:17;;;;;;;14.80;8.90;;;;;;;25.57;65.22;100065.63;5058699;28;20036;-68
2021/07/08 01:14:42;;;;;;;11.63;9.20;;;;;;;25.52;65.47;100058.25;5060367;28;20021;-66
2021/07/08 01:17:09;;;;;;;14.73;8.93;;;;;;;25.52;65.59;100058.25;5058702;28;20094;-67
2021/07/08 01:19:37;;;;;;;15.70;9.13;;;;;;;25.53;65.55;100068.03;5055446;28;20029;-64
2021/07/08 01:22:04;;;;;;;11.57;8.57;;;;;;;25.57;65.29;100068.34;5059376;28;20074;-67
2021/07/08 01:24:33;;;;;;;12.93;8.18;;;;;;;25.46;65.02;100053.84;5058353;28;20029;-67
2021/07/08 01:27:00;;;;;;;14.15;8.77;;;;;;;25.49;65.30;100068.78;5060041;28;20070;-67
2021/07/08 01:29:26;;;;;;;14.25;10.18;;;;;;;25.47;66.26;100069.03;5059553;28;20029;-67
2021/07/08 01:31:52;;;;;;;12.30;9.55;;;;;;;25.56;64.94;100061.28;5059289;28;20057;-65
2021/07/08 01:34:17;;;;;;;15.93;9.00;;;;;;;25.45;65.15;100063.84;5057725;28;20032;-65
2021/07/08 01:36:43;;;;;;;18.05;9.38;;;;;;;25.40;65.25;100060.25;5058607;28;20032;-68
2021/07/08 01:39:08;;;;;;;15.45;9.40;;;;;;;25.26;67.04;100061.69;5059204;28;20029;-67
2021/07/08 01:41:34;;;;;;;20.55;9.90;;;;;;;25.27;66.54;100049.78;5058343;28;20044;-68
2021/07/08 01:44:00;;;;;;;11.20;9.32;;;;;;;25.19;65.73;100061.06;5059838;28;20251;-67
2021/07/08 01:46:26;;;;;;;14.73;9.30;;;;;;;25.06;66.91;100054.94;5058175;28;20293;-65
2021/07/08 01:48:52;;;;;;;17.52;9.27;;;;;;;24.98;67.02;100047.22;5058537;28;20329;-65
2021/07/08 01:51:23;;;;;;;10.32;9.23;;;;;;;25.01;67.45;100051.34;5059258;28;20017;-65
2021/07/08 01:53:49;;;;;;;13.40;9.23;;;;;;;24.96;67.40;100053.91;5058162;28;20278;-68
2021/07/08 01:56:15;;;;;;;12.77;9.20;;;;;;;24.96;66.91;100056.63;5055688;28;20028;-67
2021/07/08 01:58:40;;;;;;;11.85;8.95;;;;;;;24.79;66.62;100054.75;5059750;28;20148;-68
2021/07/08 02:01:06;;;;;;;12.98;9.10;;;;;;;24.70;67.31;100058.94;5055284;28;20045;-68
2021/07/08 02:03:32;;;;;;;9.88;8.77;;;;;;;24.42;67.67;100048.19;5059690;28;20075;-68
2021/07/08 02:05:57;;;;;;;12.48;9.40;;;;;;;24.47;67.86;100078.06;5061829;28;20040;-65
2021/07/08 02:08:23;;;;;;;16.02;9.05;;;;;;;24.23;68.83;100082.75;5062624;28;20067;-65
2021/07/08 02:10:48;;;;;;;13.60;9.40;;;;;;;24.12;69.56;100078.22;5057469;28;20032;-65
2021/07/08 02:13:14;;;;;;;15.18;9.75;;;;;;;24.19;69.55;100079.69;5059182;28;20060;-64
2021/07/08 02:15:39;;;;;;;13.60;9.20;;;;;;;24.31;69.04;100084.25;5057722;28;20021;-64
2021/07/08 02:18:06;;;;;;;14.82;9.88;;;;;;;24.38;69.47;100088.47;5059113;28;20036;-64
2021/07/08 02:20:32;;;;;;;17.17;10.38;;;;;;;24.42;69.52;100092.31;5057952;28;20079;-66
2021/07/08 02:22:57;;;;;;;16.38;9.48;;;;;;;24.48;68.78;100082.41;5057642;28;20025;-68
2021/07/08 02:25:23;;;;;;;18.02;9.73;;;;;;;24.47;69.04;100075.34;5058805;28;20055;-67
2021/07/08 02:27:48;;;;;;;14.95;9.10;;;;;;;24.61;69.08;100073.13;5057378;28;20037;-68
2021/07/08 02:30:21;;;;;;;14.38;10.15;;;;;;;24.67;69.42;100067.56;5057748;28;20214;-65
2021/07/08 02:32:51;;;;;;;15.63;10.82;;;;;;;24.77;69.15;100077.72;5058258;28;20371;-68
2021/07/08 02:35:18;;;;;;;14.27;10.50;;;;;;;24.55;70.56;100083.06;5057286;28;20033;-68
2021/07/08 02:37:43;;;;;;;20.45;11.18;;;;;;;24.61;69.45;100082.06;5057496;28;20043;-65
2021/07/08 02:40:14;;;;;;;17.33;11.73;;;;;;;24.46;69.91;100081.81;5058593;28;20299;-65
2021/07/08 02:42:41;;;;;;;19.13;11.05;;;;;;;24.43;70.46;100079.59;5057129;28;20314;-65
2021/07/08 02:45:08;;;;;;;15.48;11.50;;;;;;;24.43;70.69;100074.19;5057134;28;20033;-68
2021/07/08 02:47:35;;;;;;;17.33;11.77;;;;;;;24.46;70.57;100087.22;5057329;28;20040;-65
2021/07/08 02:50:01;;;;;;;17.58;10.55;;;;;;;24.45;70.35;100081.00;5056630;28;20068;-68
2021/07/08 02:52:26;;;;;;;14.65;10.98;;;;;;;24.56;69.90;100086.59;5058533;28;20082;-65
2021/07/08 02:54:52;;;;;;;16.08;9.85;;;;;;;24.48;69.86;100079.69;5057181;28;20104;-68
2021/07/08 02:57:17;;;;;;;13.68;9.90;;;;;;;24.55;69.74;100084.94;5056825;28;20033;-65
2021/07/08 02:59:43;;;;;;;14.23;10.13;;;;;;;24.69;69.09;100089.78;5058164;28;20067;-67
2021/07/08 03:02:08;;;;;;;14.30;9.93;;;;;;;24.72;68.92;100083.88;5056519;28;20032;-68
2021/07/08 03:04:34;;;;;;;23.23;10.32;;;;;;;24.78;68.99;100088.31;5062383;28;20029;-66
2021/07/08 03:07:00;;;;;;;12.55;9.50;;;;;;;24.60;69.79;100090.44;5061045;28;20074;-64
2021/07/08 03:09:25;;;;;;;13.68;10.43;;;;;;;24.49;70.94;100101.09;5057486;28;20299;-64
2021/07/08 03:11:50;;;;;;;17.90;10.75;;;;;;;24.44;71.01;100105.59;5056786;28;20043;-64
2021/07/08 03:14:16;;;;;;;12.02;10.02;;;;;;;24.37;71.21;100094.94;5057828;28;20227;-64
2021/07/08 03:16:41;;;;;;;14.05;9.52;;;;;;;24.55;70.17;100110.13;5060772;28;20040;-65
2021/07/08 03:19:07;;;;;;;15.55;10.50;;;;;;;24.50;70.34;100119.00;5060889;28;20081;-67
2021/07/08 03:21:32;;;;;;;18.30;10.10;;;;;;;24.62;69.51;100120.81;5057755;28;20025;-67
2021/07/08 03:23:58;;;;;;;23.15;10.70;;;;;;;24.58;69.85;100120.47;5056708;28;20284;-68
2021/07/08 03:26:23;;;;;;;16.85;11.07;;;;;;;24.70;69.45;100115.81;5056784;28;20025;-65
2021/07/08 03:28:48;;;;;;;21.52;9.43;;;;;;;24.87;68.76;100120.41;5058056;28;20318;-68
2021/07/08 03:31:15;;;;;;;13.02;10.05;;;;;;;25.00;68.00;100112.00;5056245;28;20330;-65
2021/07/08 03:33:40;;;;;;;13.60;9.95;;;;;;;24.83;68.52;100118.19;5056306;28;20079;-68
2021/07/08 03:36:06;;;;;;;16.95;10.52;;;;;;;24.81;68.89;100111.38;5057446;28;20041;-65
2021/07/08 03:38:31;;;;;;;13.43;10.20;;;;;;;24.84;68.98;100121.72;5054902;28;20025;-68
2021/07/08 03:40:57;;;;;;;15.35;10.27;;;;;;;24.92;68.29;100115.88;5055445;28;20024;-68
2021/07/08 03:43:22;;;;;;;16.35;10.48;;;;;;;24.83;69.00;100126.31;5061006;28;20051;-68
2021/07/08 03:45:48;;;;;;;15.32;11.48;;;;;;;24.97;68.21;100131.41;5059574;28;20041;-65
2021/07/08 03:48:13;;;;;;;18.02;10.15;;;;;;;25.06;67.38;100132.69;5056185;28;20040;-66
2021/07/08 03:50:38;;;;;;;17.20;10.02;;;;;;;25.03;67.67;100123.16;5057176;28;20037;-65
2021/07/08 03:53:04;;;;;;;18.20;10.32;;;;;;;24.94;67.37;100113.75;5055874;28;20063;-67
2021/07/08 03:55:29;;;;;;;16.83;10.38;;;;;;;25.07;67.44;100129.72;5055352;28;20067;-65
2021/07/08 03:57:55;;;;;;;14.73;10.02;;;;;;;25.04;67.58;100127.50;5058286;28;20184;-67
2021/07/08 04:00:27;;;;;;;18.45;10.90;;;;;;;25.06;67.70;100124.56;5061637;28;20021;-67
2021/07/08 04:02:53;;;;;;;14.60;11.00;;;;;;;25.17;67.12;100120.94;5060983;28;20035;-66
2021/07/08 04:05:19;;;;;;;15.10;9.55;;;;;;;25.11;67.74;100130.06;5059938;28;20025;-67
2021/07/08 04:07:44;;;;;;;19.25;10.65;;;;;;;24.89;68.57;100134.53;5061561;28;20075;-67
2021/07/08 04:10:10;;;;;;;16.48;10.63;;;;;;;24.73;68.92;100131.56;5060260;28;20061;-65
2021/07/08 04:12:36;;;;;;;19.40;10.90;;;;;;;24.70;69.06;100136.66;5059891;28;20032;-68
2021/07/08 04:15:01;;;;;;;15.40;10.35;;;;;;;24.70;69.42;100142.06;5061493;28;20206;-68
2021/07/08 04:17:27;;;;;;;21.85;11.95;;;;;;;24.76;69.47;100124.84;5059690;28;20028;-65
2021/07/08 04:19:52;;;;;;;22.00;11.27;;;;;;;24.87;69.37;100129.34;5060760;28;20079;-65
2021/07/08 04:22:17;;;;;;;19.73;11.35;;;;;;;24.97;68.77;100134.09;5060779;28;20036;-65
2021/07/08 04:24:43;;;;;;;22.77;12.00;;;;;;;25.19;67.93;100126.91;5064734;28;20028;-65
2021/07/08 04:27:08;;;;;;;21.23;11.50;;;;;;;25.21;67.78;100130.22;5063195;28;20027;-65
2021/07/08 04:29:34;;;;;;;24.65;10.95;;;;;;;25.17;67.57;100126.34;5059417;28;20230;-67
2021/07/08 04:32:00;;;;;;;18.70;11.27;;;;;;;24.98;68.13;100125.78;5063681;28;20036;-66
2021/07/08 04:34:25;;;;;;;19.65;11.80;;;;;;;24.99;68.46;100134.75;5063944;28;20025;-68
2021/07/08 04:36:51;;;;;;;21.80;12.30;;;;;;;24.95;68.91;100133.53;5060698;28;20029;-65
2021/07/08 04:39:17;;;;;;;19.10;12.52;;;;;;;25.10;68.75;100136.53;5060295;28;20048;-68
2021/07/08 04:41:42;;;;;;;17.77;11.93;;;;;;;25.21;68.10;100135.63;5059651;28;20044;-65
2021/07/08 04:44:08;;;;;;;28.05;12.30;;;;;;;25.37;67.75;100136.66;5061667;28;20075;-67
2021/07/08 04:46:33;;;;;;;18.42;12.20;;;;;;;25.41;67.36;100144.06;5065421;28;20024;-68
2021/07/08 04:48:59;;;;;;;18.20;12.27;;;;;;;25.38;67.91;100141.03;5065700;28;20041;-65
2021/07/08 04:51:24;;;;;;;24.20;12.25;;;;;;;25.27;68.25;100147.34;5064775;28;20048;-67
2021/07/08 04:53:53;;;;;;;17.98;11.57;;;;;;;25.25;69.07;100152.22;5065507;28;20048;-64
2021/07/08 04:56:18;;;;;;;19.67;13.15;;;;;;;25.46;67.77;100156.84;5064050;28;20025;-67
2021/07/08 04:58:44;;;;;;;26.23;13.02;;;;;;;25.68;66.87;100152.31;5065130;28;20041;-67
2021/07/08 05:01:09;;;;;;;25.77;13.05;;;;;;;25.60;66.44;100163.56;5064704;28;20249;-68
2021/07/08 05:03:35;;;;;;;23.33;12.68;;;;;;;25.68;66.26;100160.44;5065299;28;20269;-65
2021/07/08 05:06:00;;;;;;;22.83;13.52;;;;;;;25.73;64.74;100160.50;5064746;28;20188;-66
2021/07/08 05:08:26;;;;;;;25.05;13.70;;;;;;;25.73;65.02;100160.50;5064601;28;20055;-65
2021/07/08 05:10:51;;;;;;;20.88;13.95;;;;;;;25.72;65.27;100168.91;5064753;28;20032;-68
2021/07/08 05:13:17;;;;;;;19.75;13.00;;;;;;;26.04;64.36;100164.44;5064844;28;20052;-65
2021/07/08 05:15:42;;;;;;;23.02;13.52;;;;;;;26.14;64.21;100162.94;5065083;28;20036;-66
2021/07/08 05:18:08;;;;;;;22.95;12.05;;;;;;;26.58;62.69;100161.81;5064976;28;20021;-68
2021/07/08 05:20:34;;;;;;;20.92;12.32;;;;;;;27.47;59.36;100153.03;5064337;28;20041;-66
2021/07/08 05:23:05;;;;;;;21.08;12.50;;;;;;;27.57;58.72;100152.25;5063466;28;20059;-65
2021/07/08 05:25:31;;;;;;;23.45;12.35;;;;;;;27.37;58.96;100150.25;5064681;28;20102;-65
2021/07/08 05:27:56;;;;;;;19.42;12.02;;;;;;;27.31;59.00;100160.28;5064366;28;20045;-68
2021/07/08 05:30:22;;;;;;;19.05;12.93;;;;;;;27.13;59.59;100163.41;5064458;28;20100;-68
2021/07/08 05:32:47;;;;;;;22.58;12.07;;;;;;;27.01;60.04;100168.19;5063830;28;20055;-66
2021/07/08 05:35:13;;;;;;;20.02;11.77;;;;;;;27.08;59.94;100173.44;5064374;28;20036;-65
2021/07/08 05:37:39;;;;;;;21.95;12.23;;;;;;;26.79;60.65;100141.06;5064542;28;20035;-64
2021/07/08 05:40:06;;;;;;;18.23;10.52;;;;;;;27.02;60.48;100176.06;5064338;28;20039;-64
2021/07/08 05:42:31;;;;;;;20.02;10.30;;;;;;;27.03;60.26;100182.34;5064097;28;20295;-64
2021/07/08 05:44:57;;;;;;;20.65;10.80;;;;;;;27.13;60.56;100170.75;5064195;28;20028;-64
2021/07/08 05:47:23;;;;;;;16.42;10.63;;;;;;;27.23;60.32;100176.25;5064343;28;20092;-68
2021/07/08 05:49:48;;;;;;;21.20;10.68;;;;;;;27.39;59.15;100185.34;5063747;28;20078;-65
2021/07/08 05:52:14;;;;;;;14.63;10.32;;;;;;;27.43;58.69;100184.56;5064107;28;20214;-68
2021/07/08 05:54:39;;;;;;;16.27;9.20;;;;;;;27.31;58.62;100183.94;5064093;28;20032;-65
2021/07/08 05:57:05;;;;;;;13.13;9.50;;;;;;;27.35;58.67;100185.03;5063726;28;20039;-68
2021/07/08 05:59:30;;;;;;;15.02;10.15;;;;;;;27.26;58.03;100190.16;5063971;28;20103;-66
2021/07/08 06:01:57;;;;;;;21.58;11.45;;;;;;;27.46;58.66;100199.53;5062643;28;20037;-65
2021/07/08 06:04:22;;;;;;;18.60;9.70;;;;;;;27.52;57.86;100198.47;5063677;28;20314;-68
2021/07/08 06:06:47;;;;;;;16.80;10.25;;;;;;;27.44;58.72;100204.41;5063860;28;20060;-65
2021/07/08 06:09:13;;;;;;;13.68;10.30;;;;;;;27.56;58.10;100216.72;5063879;28;20064;-67
2021/07/08 06:11:38;;;;;;;17.98;9.63;;;;;;;27.50;57.80;100220.50;5063799;28;20344;-65
2021/07/08 06:14:04;;;;;;;16.38;10.80;;;;;;;27.73;57.25;100224.75;5063683;28;20033;-65
2021/07/08 06:16:29;;;;;;;12.73;10.35;;;;;;;27.77;57.83;100225.88;5063777;28;20368;-68
2021/07/08 06:18:55;;;;;;;18.20;11.77;;;;;;;27.89;57.56;100214.78;5063414;28;20342;-65
2021/07/08 06:21:20;;;;;;;17.33;11.30;;;;;;;27.91;57.79;100210.69;5059168;28;20036;-65
2021/07/08 06:23:46;;;;;;;21.00;10.82;;;;;;;28.06;57.74;100201.78;5060227;28;20025;-65
2021/07/08 06:26:11;;;;;;;14.27;11.60;;;;;;;28.18;56.53;100204.31;5058803;28;20044;-67
2021/07/08 06:28:37;;;;;;;14.38;10.77;;;;;;;28.49;55.65;100208.78;5056737;28;20087;-64
2021/07/08 06:31:03;;;;;;;14.73;10.60;;;;;;;28.45;55.58;100207.69;5058633;28;20029;-67
2021/07/08 06:33:29;;;;;;;16.75;10.68;;;;;;;28.51;55.73;100203.06;5059882;28;20041;-67
2021/07/08 06:35:54;;;;;;;17.80;11.52;;;;;;;28.61;55.32;100206.63;5058986;28;20028;-68
2021/07/08 06:38:20;;;;;;;16.55;11.60;;;;;;;28.49;55.99;100210.69;5059026;28;20029;-69
2021/07/08 06:40:45;;;;;;;14.48;11.43;;;;;;;28.57;55.27;100212.91;5056759;28;20036;-65
2021/07/08 06:43:11;;;;;;;16.17;11.95;;;;;;;28.79;55.07;100215.38;5058304;28;20037;-68
2021/07/08 06:45:37;;;;;;;20.48;11.55;;;;;;;28.96;54.62;100217.88;5059680;28;20033;-68
2021/07/08 06:48:06;;;;;;;16.23;12.23;;;;;;;28.99;54.85;100214.59;5058387;28;20253;-68
2021/07/08 06:50:34;;;;;;;19.80;11.13;;;;;;;29.21;53.88;100215.19;5058454;28;20021;-65
2021/07/08 06:53:03;;;;;;;16.70;12.38;;;;;;;29.27;53.45;100218.72;5059302;28;20048;-68
2021/07/08 06:55:29;;;;;;;17.30;12.15;;;;;;;29.34;53.23;100211.91;5058881;28;20375;-65
2021/07/08 06:57:54;;;;;;;21.95;11.77;;;;;;;29.46;53.04;100215.19;5058469;28;20049;-69
2021/07/08 07:00:26;;;;;;;18.65;11.50;;;;;;;29.49;53.47;100213.81;5059164;28;20032;-68
2021/07/08 07:02:57;;;;;;;19.48;11.68;;;;;;;29.42;53.05;100207.78;5058177;28;20068;-68
2021/07/08 07:05:23;;;;;;;18.63;12.43;;;;;;;29.78;52.93;100212.13;5058340;28;20017;-66
2021/07/08 07:07:50;;;;;;;18.77;11.40;;;;;;;30.17;51.09;100215.03;5059343;28;20075;-65
2021/07/08 07:10:16;;;;;;;15.15;11.13;;;;;;;30.77;50.36;100210.34;5058087;28;20079;-64
2021/07/08 07:12:46;;;;;;;14.93;10.85;;;;;;;31.45;47.71;100212.28;5058307;28;20033;-67
2021/07/08 07:15:13;;;;;;;21.15;11.25;;;;;;;31.72;47.52;100204.34;5059016;28;20101;-67
2021/07/08 07:17:39;;;;;;;18.38;10.85;;;;;;;32.02;46.61;100205.91;5058294;28;20377;-64
2021/07/08 07:20:09;;;;;;;18.70;9.93;;;;;;;32.31;45.89;100205.88;5057890;28;20040;-67
2021/07/08 07:22:35;;;;;;;14.73;9.45;;;;;;;32.09;44.37;100202.81;5058785;28;20041;-68
2021/07/08 07:25:01;;;;;;;15.15;9.73;;;;;;;32.70;42.53;100211.06;5057809;28;20112;-66
2021/07/08 07:27:26;;;;;;;13.20;9.05;;;;;;;33.47;40.41;100210.69;5057853;28;20037;-68
2021/07/08 07:29:52;;;;;;;12.82;8.27;;;;;;;33.85;38.84;100205.84;5058811;28;20021;-68
2021/07/08 07:32:18;;;;;;;14.48;9.77;;;;;;;34.16;39.78;100208.78;5057288;28;20350;-66
2021/07/08 07:34:44;;;;;;;16.65;9.73;;;;;;;34.31;39.03;100185.63;5058619;28;20025;-77
2021/07/08 07:37:09;;;;;;;14.52;9.07;;;;;;;35.09;37.28;100189.09;5060606;28;20090;-65
2021/07/08 07:39:35;;;;;;;12.70;8.90;;;;;;;35.63;35.98;100184.41;5050326;28;20030;-66
2021/07/08 07:42:00;;;;;;;11.57;8.27;;;;;;;35.91;34.99;100190.50;5043411;28;20045;-68
2021/07/08 07:44:26;;;;;;;13.35;8.85;;;;;;;35.46;36.46;100183.19;5041356;28;20022;-66
2021/07/08 07:46:51;;;;;;;19.27;9.38;;;;;;;35.13;37.31;100184.56;5041604;28;20254;-65
2021/07/08 07:49:17;;;;;;;13.27;9.30;;;;;;;34.85;36.58;100181.97;5041796;28;20036;-68
2021/07/08 07:51:42;;;;;;;16.63;9.25;;;;;;;35.11;37.12;100184.09;5041649;28;20041;-64
2021/07/08 07:54:09;;;;;;;12.40;8.32;;;;;;;35.51;35.51;100179.50;5041706;28;20064;-65
2021/07/08 07:56:34;;;;;;;13.90;8.98;;;;;;;35.61;35.20;100175.63;5041850;28;20038;-64
2021/07/08 07:59:00;;;;;;;10.88;9.13;;;;;;;35.35;36.73;100178.25;5041910;28;20029;-64
2021/07/08 08:01:25;;;;;;;12.50;9.60;;;;;;;34.07;40.17;100185.06;5041643;28;20330;-65
2021/07/08 08:03:52;;;;;;;10.55;8.48;;;;;;;33.95;39.34;100178.16;5042076;28;20035;-65
2021/07/08 08:09:03;;;;;;;13.23;9.65;;;;;;;34.02;39.77;100174.19;5040915;28;20076;-68
2021/07/08 08:11:28;;;;;;;11.60;9.68;;;;;;;33.77;39.94;100168.09;5041938;28;20037;-68
2021/07/08 08:13:54;;;;;;;12.18;8.30;;;;;;;34.25;39.17;100173.94;5042217;28;20036;-66
2021/07/08 08:16:19;;;;;;;10.88;8.63;;;;;;;34.81;37.96;100166.38;5041370;28;20335;-65
2021/07/08 08:18:44;;;;;;;12.98;9.20;;;;;;;35.47;36.60;100173.81;5041753;28;20047;-65
2021/07/08 08:21:10;;;;;;;12.43;8.73;;;;;;;35.71;35.52;100169.84;5041505;28;20045;-68
2021/07/08 08:23:36;;;;;;;11.82;8.30;;;;;;;35.46;36.03;100174.13;5042022;28;20196;-68
2021/07/08 08:26:02;;;;;;;12.48;8.55;;;;;;;35.33;35.90;100167.56;5042058;28;20330;-69
2021/07/08 08:28:27;;;;;;;13.85;7.30;;;;;;;35.18;34.99;100170.69;5047525;28;20294;-68
2021/07/08 08:30:53;;;;;;;13.13;6.18;;;;;;;34.43;35.72;100166.72;5047634;28;20022;-64
2021/07/08 08:33:19;;;;;;;9.05;6.15;;;;;;;34.68;36.48;100165.31;5051137;28;20045;-64
2021/07/08 08:35:45;;;;;;;9.20;6.90;;;;;;;35.19;35.13;100159.34;5048598;28;20032;-67
2021/07/08 08:38:11;;;;;;;7.68;6.00;;;;;;;35.35;34.69;100164.47;5045783;28;20029;-65
2021/07/08 08:40:36;;;;;;;26.45;6.38;;;;;;;35.31;35.14;100161.53;5050744;28;20032;-65
2021/07/08 08:43:02;;;;;;;10.57;6.43;;;;;;;33.86;38.02;100165.47;5047343;28;20166;-66
2021/07/08 08:45:29;;;;;;;10.70;6.15;;;;;;;33.11;38.29;100169.28;5054281;28;20041;-68
2021/07/08 08:48:06;;;;;;;6.50;5.82;;;;;;;33.07;38.94;100176.47;5051668;28;20029;-68
2021/07/08 08:50:40;;;;;;;6.40;5.80;;;;;;;32.69;39.76;100176.53;5058688;28;20087;-65
2021/07/08 08:53:08;;;;;;;7.25;5.00;;;;;;;32.72;37.60;100175.13;5051539;28;20142;-65
2021/07/08 08:55:35;;;;;;;5.70;4.75;;;;;;;33.04;37.84;100173.53;5050133;28;20037;-70
2021/07/08 08:58:03;;;;;;;12.82;6.22;;;;;;;33.02;37.83;100171.09;5053259;28;20029;-65
2021/07/08 09:00:28;;;;;;;6.97;5.63;;;;;;;33.36;37.30;100172.75;5051682;28;20114;-65
2021/07/08 09:03:12;;;;;;;10.70;6.07;;;;;;;33.65;36.91;100176.00;5048715;28;20033;-68
2021/07/08 09:05:39;;;;;;;7.22;5.47;;;;;;;33.46;36.86;100173.38;5049563;28;20021;-65
2021/07/08 09:08:10;;;;;;;6.30;5.70;;;;;;;33.06;38.44;100169.38;5049797;28;20375;-67
2021/07/08 09:10:36;;;;;;;10.18;5.97;;;;;;;33.13;37.76;100169.78;5051205;28;20029;-67
2021/07/08 09:13:01;;;;;;;9.43;5.63;;;;;;;33.28;37.24;100166.78;5049988;28;20208;-67
2021/07/08 09:15:27;;;;;;;8.48;6.22;;;;;;;33.67;38.42;100164.72;5049176;28;20049;-65
2021/07/08 09:17:52;;;;;;;8.35;5.93;;;;;;;33.80;38.63;100161.16;5048704;28;20032;-67
2021/07/08 09:20:20;;;;;;;13.68;5.15;;;;;;;33.93;38.22;100158.44;5049883;28;20039;-68
2021/07/08 09:22:47;;;;;;;7.00;5.88;;;;;;;34.37;36.92;100156.16;5048797;28;20033;-66
2021/07/08 09:25:18;;;;;;;6.88;5.28;;;;;;;34.34;37.25;100159.53;5050423;28;20032;-65
2021/07/08 09:27:45;;;;;;;9.63;5.15;;;;;;;34.14;36.98;100158.00;5055431;28;20021;-68
2021/07/08 09:30:29;;;;;;;8.48;5.05;;;;;;;34.26;36.00;100156.34;5051306;28;20030;-68
2021/07/08 09:32:55;;;;;;;8.25;5.38;;;;;;;33.90;37.22;100155.50;5051480;28;20036;-65
2021/07/08 09:35:32;;;;;;;7.05;5.53;;;;;;;33.62;37.74;100154.66;5050490;28;20074;-68
2021/07/08 09:38:11;;;;;;;6.82;5.82;;;;;;;33.88;36.36;100153.06;5051699;28;20231;-65
2021/07/08 09:40:39;;;;;;;10.07;5.20;;;;;;;34.09;38.07;100147.94;5051229;28;20064;-68
2021/07/08 09:43:06;;;;;;;6.47;5.57;;;;;;;34.41;36.35;100146.16;5047930;28;20033;-65
2021/07/08 09:45:44;;;;;;;9.82;5.88;;;;;;;34.41;36.82;100140.66;5051873;28;20037;-68
2021/07/08 09:48:18;;;;;;;6.13;5.38;;;;;;;34.55;36.87;100146.94;5049456;28;20025;-67
2021/07/08 09:50:44;;;;;;;9.88;6.28;;;;;;;34.55;35.92;100142.25;5051870;28;20055;-67
2021/07/08 09:53:22;;;;;;;9.82;5.50;;;;;;;34.74;35.39;100138.50;5048109;28;20028;-64
2021/07/08 09:58:33;;;;;;;7.57;5.70;;;;;;;34.55;37.02;100138.69;5050102;28;20024;-68
2021/07/08 10:01:13;;;;;;;8.95;5.18;;;;;;;34.33;35.77;100136.69;5047935;28;20044;-68
2021/07/08 10:03:40;;;;;;;7.93;5.30;;;;;;;34.15;37.03;100130.19;5053131;28;20075;-68
2021/07/08 10:06:06;;;;;;;8.40;5.22;;;;;;;34.20;35.94;100127.34;5049361;28;20108;-65
2021/07/08 10:08:32;;;;;;;7.25;5.78;;;;;;;34.30;35.94;100128.22;5049476;28;20062;-65
2021/07/08 10:10:58;;;;;;;7.43;4.90;;;;;;;34.12;36.44;100125.31;5049736;28;20063;-66
2021/07/08 10:13:24;;;;;;;6.53;5.40;;;;;;;33.70;37.03;100120.19;5050838;28;20032;-68
2021/07/08 10:15:51;;;;;;;9.43;5.85;;;;;;;33.42;39.01;100124.88;5050643;28;20028;-68
2021/07/08 10:18:17;;;;;;;10.48;5.40;;;;;;;33.20;38.08;100122.75;5049859;28;20289;-68
2021/07/08 10:20:45;;;;;;;9.75;5.72;;;;;;;32.89;39.24;100123.31;5050671;28;20033;-66
2021/07/08 10:23:11;;;;;;;6.03;5.25;;;;;;;32.82;38.55;100119.31;5050596;28;20314;-67
2021/07/08 10:25:37;;;;;;;5.93;5.20;;;;;;;32.48;39.08;100111.34;5048969;28;20330;-67
2021/07/08 10:28:03;;;;;;;7.68;5.28;;;;;;;32.30;38.60;100113.81;5052512;28;20040;-64
2021/07/08 10:30:30;;;;;;;9.13;5.38;;;;;;;32.24;39.56;100108.69;5048565;28;20091;-64
2021/07/08 10:32:57;;;;;;;8.77;5.60;;;;;;;32.62;38.15;100117.69;5047663;28;20200;-64
2021/07/08 10:35:45;;;;;;;7.18;5.53;;;;;;;32.62;38.10;100106.72;5049953;28;20045;-69
2021/07/08 10:38:29;;;;;;;11.35;5.80;;;;;;;32.99;37.04;100101.19;5049764;28;20036;-68
2021/07/08 10:40:54;;;;;;;;;;;;;;;33.15;37.43;100098.97;5050454;28;20040;-68
2021/07/08 10:43:35;;;;;;;6.25;5.47;;;;;;;33.25;37.47;100092.47;5049700;28;20157;-68
2021/07/08 10:46:05;;;;;;;6.10;5.40;;;;;;;33.06;37.53;100092.56;5048119;28;20047;-65
2021/07/08 10:48:45;;;;;;;7.65;5.65;;;;;;;33.47;37.71;100087.13;5049561;28;20282;-65
2021/07/08 10:51:34;;;;;;;5.82;4.53;;;;;;;33.48;37.03;100085.22;5048705;28;20098;-68
2021/07/08 10:53:59;;;;;;;7.43;5.15;;;;;;;33.51;36.18;100093.66;5048684;28;20223;-68
2021/07/08 10:56:34;;;;;;;10.23;5.13;;;;;;;33.60;37.18;100085.50;5052905;28;20021;-65
2021/07/08 10:59:12;;;;;;;6.85;4.82;;;;;;;34.00;35.50;100083.84;5050558;28;20034;-68
2021/07/08 11:01:46;;;;;;;6.43;4.72;;;;;;;34.32;34.94;100085.59;5054425;28;20392;-64
2021/07/08 11:04:12;;;;;;;6.13;4.63;;;;;;;34.02;34.72;100087.09;5045613;28;20026;-67
2021/07/08 11:06:43;;;;;;;9.07;5.13;;;;;;;33.88;35.05;100070.63;5050201;28;20063;-64
2021/07/08 11:09:18;;;;;;;7.63;4.65;;;;;;;33.83;36.22;100072.69;5057296;28;20264;-67
2021/07/08 11:11:46;;;;;;;5.55;4.80;;;;;;;33.57;35.91;100070.47;5043565;28;20235;-65
2021/07/08 11:14:14;;;;;;;5.75;4.38;;;;;;;33.50;36.96;100075.56;5056605;28;20090;-68
2021/07/08 11:16:48;;;;;;;6.38;4.20;;;;;;;33.54;35.90;100073.81;5043869;28;20087;-68
2021/07/08 11:19:16;;;;;;;8.35;4.20;;;;;;;33.47;36.71;100067.13;5053716;28;20067;-65
2021/07/08 11:21:55;;;;;;;6.50;4.18;;;;;;;32.88;36.89;100072.31;5043019;28;20226;-68